createdAt,value
2023-01-13T00:02:20.463Z,39.83
2023-01-13T00:04:50.963Z,48.08
2023-01-13T00:07:21.726Z,49.13
2023-01-13T00:09:53.128Z,48.20
2023-01-13T00:12:23.712Z,44.88
2023-01-13T00:14:54.358Z,44.13
2023-01-13T00:17:24.965Z,51.97
2023-01-13T00:19:56.067Z,42.75
2023-01-13T00:22:26.540Z,78.32
2023-01-13T00:24:59.165Z,47.58
2023-01-13T00:27:30.567Z,45.20
2023-01-13T00:30:01.479Z,42.20
2023-01-13T00:32:35.050Z,37.33
2023-01-13T00:35:06.355Z,40.78
2023-01-13T00:37:40.226Z,37.80
2023-01-13T00:40:11.562Z,42.70
2023-01-13T00:43:00.556Z,42.22
2023-01-13T00:45:31.244Z,51.88
2023-01-13T00:48:01.542Z,40.90
2023-01-13T00:50:32.411Z,32.85
2023-01-13T00:53:03.470Z,36.78
2023-01-13T00:55:37.014Z,38.50
2023-01-13T00:58:07.530Z,39.92
2023-01-13T01:00:38.081Z,41.20
2023-01-13T01:03:15.646Z,39.17
2023-01-13T01:05:45.976Z,37.30
2023-01-13T01:08:16.451Z,39.83
2023-01-13T01:10:47.038Z,41.38
2023-01-13T01:13:18.347Z,45.60
2023-01-13T01:15:49.174Z,39.90
2023-01-13T01:18:19.833Z,33.67
2023-01-13T01:20:52.870Z,36.92
2023-01-13T01:23:23.610Z,36.10
2023-01-13T01:25:53.947Z,29.55
2023-01-13T01:28:24.386Z,34.08
2023-01-13T01:30:56.348Z,31.45
2023-01-13T01:33:30.508Z,32.10
2023-01-13T01:36:02.701Z,28.60
2023-01-13T01:38:35.346Z,27.30
2023-01-13T01:41:06.788Z,21.67
2023-01-13T01:44:01.173Z,32.20
2023-01-13T01:46:34.811Z,25.70
2023-01-13T01:49:17.086Z,29.13
2023-01-13T01:52:08.557Z,24.35
2023-01-13T01:54:39.412Z,20.80
2023-01-13T01:57:13.374Z,23.30
2023-01-13T01:59:44.188Z,22.98
2023-01-13T02:02:14.919Z,29.17
2023-01-13T02:04:51.844Z,19.65
2023-01-13T02:07:28.087Z,23.98
2023-01-13T02:10:00.772Z,20.02
2023-01-13T02:12:32.829Z,23.67
2023-01-13T02:15:09.399Z,23.35
2023-01-13T02:18:10.156Z,50.28
2023-01-13T02:21:00.306Z,26.58
2023-01-13T02:24:42.778Z,29.63
2023-01-13T02:27:50.865Z,29.60
2023-01-13T02:30:48.037Z,19.67
2023-01-13T02:34:01.105Z,27.13
2023-01-13T02:36:50.197Z,23.42
2023-01-13T02:40:07.853Z,30.27
2023-01-13T02:43:15.545Z,22.25
2023-01-13T02:46:00.651Z,22.15
2023-01-13T02:48:33.125Z,22.42
2023-01-13T02:51:11.628Z,20.90
2023-01-13T02:53:48.622Z,21.25
2023-01-13T02:56:19.695Z,23.42
2023-01-13T02:58:53.361Z,21.30
2023-01-13T03:01:24.351Z,24.98
2023-01-13T03:03:55.102Z,22.80
2023-01-13T03:06:31.775Z,23.35
2023-01-13T03:09:23.074Z,26.70
2023-01-13T03:12:04.930Z,29.55
2023-01-13T03:14:42.522Z,25.58
2023-01-13T03:18:03.888Z,27.15
2023-01-13T03:20:56.332Z,26.05
2023-01-13T03:23:36.388Z,30.50
2023-01-13T03:26:22.303Z,27.98
2023-01-13T03:29:10.042Z,34.80
2023-01-13T03:31:47.285Z,28.90
2023-01-13T03:34:22.928Z,37.47
2023-01-13T03:36:55.468Z,29.15
2023-01-13T03:39:32.715Z,30.70
2023-01-13T03:42:10.716Z,28.35
2023-01-13T03:44:49.529Z,28.30
2023-01-13T03:47:35.174Z,23.02
2023-01-13T03:50:14.205Z,32.42
2023-01-13T03:52:51.772Z,29.98
2023-01-13T03:55:31.129Z,27.00
2023-01-13T03:58:31.869Z,27.27
2023-01-13T04:01:27.391Z,26.95
2023-01-13T04:04:18.585Z,24.90
2023-01-13T04:07:08.922Z,20.42
2023-01-13T04:09:56.312Z,24.88
2023-01-13T04:13:03.964Z,27.38
2023-01-13T04:15:41.372Z,23.65
2023-01-13T04:18:19.638Z,27.13
2023-01-13T04:20:52.151Z,25.63
2023-01-13T04:23:23.821Z,29.27
2023-01-13T04:25:54.453Z,30.35
2023-01-13T04:28:25.966Z,27.00
2023-01-13T04:30:56.802Z,29.40
2023-01-13T04:33:27.881Z,32.60
2023-01-13T04:35:58.668Z,32.08
2023-01-13T04:38:29.218Z,21.15
2023-01-13T04:40:59.716Z,24.10
2023-01-13T04:43:30.188Z,13.00
2023-01-13T04:46:00.633Z,13.68
2023-01-13T04:48:31.126Z,15.88
2023-01-13T04:51:02.039Z,15.48
2023-01-13T04:53:32.632Z,19.98
2023-01-13T04:56:03.672Z,13.40
2023-01-13T04:58:37.250Z,14.27
2023-01-13T05:01:07.906Z,15.23
2023-01-13T05:03:39.096Z,11.60
2023-01-13T05:06:09.840Z,14.95
2023-01-13T05:08:40.431Z,13.25
2023-01-13T05:11:29.819Z,15.65
2023-01-13T05:14:42.327Z,12.98
2023-01-13T05:17:20.564Z,17.52
2023-01-13T05:19:50.980Z,22.17
2023-01-13T05:22:39.681Z,31.13
2023-01-13T05:25:22.850Z,28.67
2023-01-13T05:28:00.994Z,35.55
2023-01-13T05:30:34.247Z,29.90
2023-01-13T05:33:05.258Z,26.10
2023-01-13T05:35:38.953Z,34.80
2023-01-13T05:38:10.784Z,21.10
2023-01-13T05:41:00.545Z,22.67
2023-01-13T05:43:31.315Z,34.70
2023-01-13T05:46:04.303Z,30.90
2023-01-13T05:48:37.431Z,37.03
2023-01-13T05:51:10.532Z,34.70
2023-01-13T05:53:43.656Z,29.65
2023-01-13T05:56:14.491Z,27.15
2023-01-13T05:58:45.730Z,27.52
2023-01-13T06:01:16.441Z,34.17
2023-01-13T06:03:46.806Z,37.83
2023-01-13T06:06:17.469Z,28.35
2023-01-13T06:08:48.201Z,29.70
2023-01-13T06:11:18.859Z,29.90
2023-01-13T06:13:49.501Z,28.75
2023-01-13T06:16:23.184Z,31.67
2023-01-13T06:18:55.592Z,40.15
2023-01-13T06:21:26.982Z,30.45
2023-01-13T06:23:58.141Z,30.38
2023-01-13T06:26:30.649Z,29.20
2023-01-13T06:29:01.360Z,26.17
2023-01-13T06:31:32.619Z,25.52
2023-01-13T06:34:13.537Z,21.00
2023-01-13T06:36:47.753Z,28.00
2023-01-13T06:39:20.287Z,35.53
2023-01-13T06:42:10.798Z,28.83
2023-01-13T06:44:41.632Z,35.25
2023-01-13T06:47:12.329Z,31.70
2023-01-13T06:49:45.542Z,30.63
2023-01-13T06:52:24.627Z,22.45
2023-01-13T06:54:55.727Z,24.75
2023-01-13T06:57:27.733Z,22.67
2023-01-13T06:59:58.420Z,24.45
2023-01-13T07:02:29.390Z,20.65
2023-01-13T07:05:00.196Z,26.73
2023-01-13T07:07:30.708Z,26.38
2023-01-13T07:10:03.069Z,28.88
2023-01-13T07:12:53.177Z,23.65
2023-01-13T07:15:23.858Z,22.45
2023-01-13T07:17:54.589Z,22.17
2023-01-13T07:20:25.708Z,26.33
2023-01-13T07:22:56.648Z,30.23
2023-01-13T07:25:27.620Z,28.65
2023-01-13T07:27:59.497Z,28.95
2023-01-13T07:30:30.084Z,22.45
2023-01-13T07:33:00.469Z,26.10
2023-01-13T07:35:31.713Z,24.40
2023-01-13T07:38:02.242Z,18.23
2023-01-13T07:40:32.653Z,30.70
2023-01-13T07:43:21.679Z,24.60
2023-01-13T07:45:59.394Z,22.40
2023-01-13T07:48:30.520Z,26.25
2023-01-13T07:51:10.604Z,27.08
2023-01-13T07:53:41.870Z,25.63
2023-01-13T07:56:12.297Z,22.67
2023-01-13T07:58:43.304Z,24.42
2023-01-13T08:01:15.879Z,27.38
2023-01-13T08:03:46.630Z,21.50
2023-01-13T08:06:17.520Z,20.95
2023-01-13T08:08:48.411Z,22.92
2023-01-13T08:11:21.520Z,26.48
2023-01-13T08:13:58.668Z,25.05
2023-01-13T08:16:29.792Z,21.30
2023-01-13T08:19:00.324Z,26.63
2023-01-13T08:21:30.899Z,27.73
2023-01-13T08:24:01.480Z,26.30
2023-01-13T08:26:32.044Z,28.95
2023-01-13T08:29:02.936Z,25.83
2023-01-13T08:31:33.246Z,26.25
2023-01-13T08:34:03.925Z,29.65
2023-01-13T08:36:35.398Z,25.88
2023-01-13T08:39:15.994Z,27.15
2023-01-13T08:42:01.355Z,24.83
2023-01-13T08:44:34.869Z,31.63
2023-01-13T08:47:05.829Z,27.23
2023-01-13T08:49:36.509Z,37.13
2023-01-13T08:52:07.213Z,28.35
2023-01-13T08:54:43.311Z,33.08
2023-01-13T08:57:14.755Z,35.20
2023-01-13T08:59:48.222Z,30.95
2023-01-13T09:02:21.450Z,35.35
2023-01-13T09:04:52.638Z,31.73
2023-01-13T09:07:24.451Z,40.72
2023-01-13T09:09:57.164Z,29.83
2023-01-13T09:12:46.313Z,22.88
2023-01-13T09:15:19.516Z,23.33
2023-01-13T09:17:49.905Z,22.83
2023-01-13T09:20:20.904Z,24.23
2023-01-13T09:22:51.376Z,21.38
2023-01-13T09:25:21.696Z,22.50
2023-01-13T09:27:52.581Z,28.25
2023-01-13T09:30:23.138Z,20.50
2023-01-13T09:33:13.715Z,24.80
2023-01-13T09:35:44.364Z,24.25
2023-01-13T09:38:16.142Z,31.20
2023-01-13T09:40:50.443Z,29.20
2023-01-13T09:43:52.171Z,27.10
2023-01-13T09:46:50.407Z,31.05
2023-01-13T09:49:41.868Z,30.70
2023-01-13T09:52:20.243Z,26.30
2023-01-13T09:54:53.820Z,33.50
2023-01-13T09:57:26.554Z,34.58
2023-01-13T09:59:59.616Z,31.23
2023-01-13T10:02:35.607Z,26.95
2023-01-13T10:05:11.763Z,49.13
2023-01-13T10:07:58.788Z,53.03
2023-01-13T10:10:38.456Z,33.80
2023-01-13T10:13:32.726Z,44.63
2023-01-13T10:16:12.095Z,37.40
2023-01-13T10:19:05.271Z,28.40
2023-01-13T10:21:54.657Z,34.88
2023-01-13T10:24:59.905Z,41.60
2023-01-13T10:27:41.097Z,41.88
2023-01-13T10:30:32.378Z,84.10
2023-01-13T10:33:14.912Z,41.72
2023-01-13T10:36:01.486Z,46.47
2023-01-13T10:38:46.453Z,50.42
2023-01-13T10:41:20.984Z,45.75
2023-01-13T10:43:55.844Z,41.72
2023-01-13T10:46:27.414Z,47.45
2023-01-13T10:49:07.836Z,45.22
2023-01-13T10:51:41.632Z,42.78
2023-01-13T10:54:15.218Z,53.75
2023-01-13T10:56:46.549Z,50.08
2023-01-13T10:59:25.721Z,41.13
2023-01-13T11:02:19.857Z,41.10
2023-01-13T11:04:55.866Z,34.05
2023-01-13T11:07:36.582Z,33.80
2023-01-13T11:10:28.108Z,35.67
2023-01-13T11:13:27.945Z,38.22
2023-01-13T11:16:17.605Z,35.10
2023-01-13T11:19:12.644Z,35.40
2023-01-13T11:21:45.340Z,31.88
2023-01-13T11:24:22.979Z,29.88
2023-01-13T11:26:58.460Z,33.83
2023-01-13T11:29:40.624Z,32.33
2023-01-13T11:32:14.724Z,35.92
2023-01-13T11:34:48.602Z,38.78
2023-01-13T11:37:29.444Z,43.70
2023-01-13T11:40:06.525Z,34.70
2023-01-13T11:42:48.029Z,33.35
2023-01-13T11:45:33.706Z,31.90
2023-01-13T11:48:04.614Z,42.80
2023-01-13T11:50:41.258Z,30.92
2023-01-13T11:53:26.614Z,36.97
2023-01-13T11:56:27.347Z,38.33
2023-01-13T11:59:40.059Z,36.83
2023-01-13T12:02:42.048Z,51.22
2023-01-13T12:05:30.791Z,52.85
2023-01-13T12:08:08.985Z,38.45
2023-01-13T12:10:52.369Z,42.42
2023-01-13T12:13:37.856Z,44.25
2023-01-13T12:16:27.822Z,43.65
2023-01-13T12:19:08.507Z,53.13
2023-01-13T12:21:41.885Z,48.28
2023-01-13T12:24:40.789Z,50.25
2023-01-13T12:27:15.830Z,43.70
2023-01-13T12:29:48.014Z,46.83
2023-01-13T12:32:22.141Z,41.17
2023-01-13T12:35:25.931Z,40.35
2023-01-13T12:38:12.481Z,40.92
2023-01-13T12:40:47.978Z,45.67
2023-01-13T12:43:40.432Z,42.05
2023-01-13T12:46:23.500Z,37.60
2023-01-13T12:49:11.603Z,44.10
2023-01-13T12:51:53.768Z,44.40
2023-01-13T12:54:44.550Z,45.35
2023-01-13T12:57:18.268Z,44.22
2023-01-13T13:00:07.023Z,42.55
2023-01-13T13:03:05.300Z,40.95
2023-01-13T13:05:50.237Z,43.33
2023-01-13T13:08:24.561Z,44.22
2023-01-13T13:11:04.437Z,39.35
2023-01-13T13:13:47.540Z,39.45
2023-01-13T13:16:30.907Z,34.40
2023-01-13T13:19:19.670Z,41.40
2023-01-13T13:22:18.958Z,40.30
2023-01-13T13:24:58.555Z,39.33
2023-01-13T13:27:51.655Z,38.13
2023-01-13T13:30:32.645Z,39.28
2023-01-13T13:34:00.398Z,38.97
2023-01-13T13:36:44.369Z,44.95
2023-01-13T13:39:37.551Z,41.25
2023-01-13T13:42:37.841Z,42.35
2023-01-13T13:45:44.413Z,43.22
2023-01-13T13:48:28.009Z,36.17
2023-01-13T13:51:05.041Z,46.75
2023-01-13T13:53:38.135Z,37.10
2023-01-13T13:56:21.784Z,40.35
2023-01-13T13:58:53.268Z,38.53
2023-01-13T14:01:40.062Z,35.95
2023-01-13T14:04:23.773Z,37.10
2023-01-13T14:06:56.760Z,34.05
2023-01-13T14:09:29.729Z,38.97
2023-01-13T14:12:04.172Z,39.80
2023-01-13T14:14:34.682Z,38.33
2023-01-13T14:17:06.589Z,41.15
2023-01-13T14:19:41.236Z,37.60
2023-01-13T14:22:17.249Z,42.55
2023-01-13T14:24:50.256Z,39.03
2023-01-13T14:27:21.094Z,41.58
2023-01-13T14:29:59.164Z,37.42
2023-01-13T14:32:37.552Z,35.30
2023-01-13T14:35:09.160Z,40.47
2023-01-13T14:37:44.105Z,41.10
2023-01-13T14:40:45.322Z,40.17
2023-01-13T14:43:19.647Z,40.53
2023-01-13T14:46:04.619Z,33.42
2023-01-13T14:48:40.418Z,37.20
2023-01-13T14:51:13.670Z,32.25
2023-01-13T14:53:49.418Z,27.17
2023-01-13T14:56:41.201Z,25.42
2023-01-13T14:59:45.899Z,21.23
2023-01-13T15:02:31.019Z,19.85
2023-01-13T15:05:24.566Z,22.63
2023-01-13T15:08:02.612Z,18.95
2023-01-13T15:10:39.109Z,23.45
2023-01-13T15:13:24.070Z,26.73
2023-01-13T15:16:01.735Z,24.02
2023-01-13T15:18:32.685Z,22.55
2023-01-13T15:21:06.423Z,28.90
2023-01-13T15:23:39.590Z,32.67
2023-01-13T15:26:21.744Z,33.63
2023-01-13T15:28:53.379Z,43.45
2023-01-13T15:31:24.367Z,36.50
2023-01-13T15:33:55.648Z,42.90
2023-01-13T15:36:32.017Z,51.92
2023-01-13T15:39:03.186Z,58.65
2023-01-13T15:41:51.701Z,47.70
2023-01-13T15:44:40.115Z,45.58
2023-01-13T15:47:10.926Z,44.70
2023-01-13T15:49:48.676Z,42.00
2023-01-13T15:52:28.960Z,48.50
2023-01-13T15:54:59.818Z,49.30
2023-01-13T15:57:34.432Z,50.75
2023-01-13T16:00:17.004Z,50.90
2023-01-13T16:02:47.720Z,44.60
2023-01-13T16:05:18.349Z,39.33
2023-01-13T16:07:49.425Z,46.75
2023-01-13T16:10:26.733Z,46.30
2023-01-13T16:12:57.869Z,43.22
2023-01-13T16:15:28.836Z,46.45
2023-01-13T16:18:01.256Z,43.95
2023-01-13T16:20:32.486Z,45.78
2023-01-13T16:23:02.811Z,52.55
2023-01-13T16:25:34.060Z,43.58
2023-01-13T16:28:05.003Z,39.00
2023-01-13T16:30:37.940Z,46.92
2023-01-13T16:33:08.944Z,48.00
2023-01-13T16:35:44.008Z,45.13
2023-01-13T16:38:30.405Z,42.47
2023-01-13T16:41:01.176Z,39.20
2023-01-13T16:43:32.306Z,41.53
2023-01-13T16:46:03.008Z,32.17
2023-01-13T16:48:33.389Z,38.53
2023-01-13T16:51:05.198Z,35.60
2023-01-13T16:53:35.572Z,35.30
2023-01-13T16:56:24.913Z,37.38
2023-01-13T16:58:57.001Z,39.22
2023-01-13T17:01:30.544Z,40.65
2023-01-13T17:04:01.557Z,39.17
2023-01-13T17:06:32.337Z,35.22
2023-01-13T17:09:12.707Z,34.22
2023-01-13T17:11:43.634Z,35.15
2023-01-13T17:14:17.336Z,32.28
2023-01-13T17:16:50.196Z,33.55
2023-01-13T17:19:21.459Z,33.97
2023-01-13T17:21:54.852Z,41.50
2023-01-13T17:24:26.758Z,36.97
2023-01-13T17:26:58.401Z,35.63
2023-01-13T17:29:31.076Z,35.28
2023-01-13T17:32:04.650Z,54.38
2023-01-13T17:34:35.713Z,41.47
2023-01-13T17:37:06.812Z,43.45
2023-01-13T17:39:37.105Z,47.13
2023-01-13T17:42:07.456Z,53.15
2023-01-13T17:44:38.724Z,49.22
2023-01-13T17:47:09.516Z,49.60
2023-01-13T17:49:40.408Z,47.20
2023-01-13T17:52:11.231Z,45.53
2023-01-13T17:54:44.006Z,42.83
2023-01-13T17:57:14.713Z,41.22
2023-01-13T17:59:45.100Z,41.35
2023-01-13T18:02:15.996Z,35.20
2023-01-13T18:04:46.644Z,33.63
2023-01-13T18:07:17.252Z,34.33
2023-01-13T18:09:47.925Z,36.42
2023-01-13T18:12:19.200Z,35.95
2023-01-13T18:14:49.526Z,33.05
2023-01-13T18:17:20.605Z,31.90
2023-01-13T18:20:09.208Z,34.28
2023-01-13T18:23:00.592Z,33.67
2023-01-13T18:25:50.164Z,40.35
2023-01-13T18:28:21.393Z,38.58
2023-01-13T18:30:51.980Z,39.33
2023-01-13T18:33:22.740Z,37.72
2023-01-13T18:35:53.151Z,35.47
2023-01-13T18:38:24.942Z,31.63
2023-01-13T18:40:55.468Z,30.88
2023-01-13T18:43:26.234Z,28.92
2023-01-13T18:45:59.695Z,40.17
2023-01-13T18:48:32.333Z,32.03
2023-01-13T18:51:02.921Z,29.98
2023-01-13T18:53:33.449Z,29.42
2023-01-13T18:56:06.485Z,31.75
2023-01-13T18:58:37.058Z,28.35
2023-01-13T19:01:07.879Z,30.65
2023-01-13T19:03:38.305Z,32.20
2023-01-13T19:06:14.828Z,35.20
2023-01-13T19:08:45.814Z,36.85
2023-01-13T19:11:16.591Z,36.15
2023-01-13T19:13:56.459Z,39.97
2023-01-13T19:16:27.163Z,37.33
2023-01-13T19:18:57.404Z,32.03
2023-01-13T19:21:28.105Z,33.35
2023-01-13T19:23:59.339Z,45.88
2023-01-13T19:26:30.589Z,36.13
2023-01-13T19:29:01.142Z,39.38
2023-01-13T19:31:31.720Z,34.83
2023-01-13T19:34:02.413Z,45.15
2023-01-13T19:36:32.948Z,37.13
2023-01-13T19:39:03.496Z,38.05
2023-01-13T19:41:52.491Z,38.42
2023-01-13T19:44:41.423Z,38.67
2023-01-13T19:47:12.030Z,48.30
2023-01-13T19:49:42.666Z,49.22
2023-01-13T19:52:13.506Z,47.13
2023-01-13T19:54:46.939Z,48.42
2023-01-13T19:57:17.306Z,58.75
2023-01-13T19:59:47.673Z,54.13
2023-01-13T20:02:32.442Z,55.72
2023-01-13T20:05:06.643Z,55.92
2023-01-13T20:07:37.330Z,57.30
2023-01-13T20:10:08.618Z,60.20
2023-01-13T20:12:41.378Z,58.03
2023-01-13T20:15:12.077Z,54.92
2023-01-13T20:17:44.745Z,58.22
2023-01-13T20:20:16.731Z,52.85
2023-01-13T20:22:47.370Z,56.70
2023-01-13T20:25:21.376Z,47.92
2023-01-13T20:27:52.090Z,55.25
2023-01-13T20:30:23.739Z,45.40
2023-01-13T20:32:54.513Z,42.72
2023-01-13T20:35:28.593Z,44.45
2023-01-13T20:37:59.614Z,41.58
2023-01-13T20:40:30.715Z,41.30
2023-01-13T20:43:01.143Z,46.58
2023-01-13T20:45:31.505Z,44.85
2023-01-13T20:48:02.717Z,38.85
2023-01-13T20:50:33.497Z,42.28
2023-01-13T20:53:04.852Z,45.85
2023-01-13T20:55:35.556Z,43.08
2023-01-13T20:58:09.621Z,44.42
2023-01-13T21:00:46.427Z,44.05
2023-01-13T21:03:17.095Z,54.17
2023-01-13T21:05:47.832Z,49.90
2023-01-13T21:08:18.757Z,48.55
2023-01-13T21:10:49.440Z,48.97
2023-01-13T21:13:44.179Z,44.58
2023-01-13T21:16:14.762Z,45.13
2023-01-13T21:19:03.602Z,41.97
2023-01-13T21:21:34.422Z,42.28
2023-01-13T21:24:05.579Z,42.58
2023-01-13T21:26:36.355Z,37.83
2023-01-13T21:29:07.828Z,41.10
2023-01-13T21:31:39.723Z,38.08
2023-01-13T21:34:11.677Z,37.10
2023-01-13T21:36:42.161Z,42.78
2023-01-13T21:39:15.095Z,39.05
2023-01-13T21:42:04.043Z,42.65
2023-01-13T21:44:52.541Z,41.17
2023-01-13T21:47:41.831Z,40.28
2023-01-13T21:50:20.106Z,40.13
2023-01-13T21:52:53.344Z,51.28
2023-01-13T21:55:25.911Z,50.40
2023-01-13T21:58:12.400Z,47.50
2023-01-13T22:00:46.565Z,48.63
2023-01-13T22:03:20.052Z,44.45
2023-01-13T22:05:57.634Z,51.70
2023-01-13T22:08:30.445Z,44.50
2023-01-13T22:11:04.185Z,51.53
2023-01-13T22:13:53.249Z,49.03
2023-01-13T22:16:26.696Z,58.97
2023-01-13T22:19:02.643Z,47.70
2023-01-13T22:21:33.413Z,51.38
2023-01-13T22:24:06.024Z,43.92
2023-01-13T22:26:39.532Z,44.40
2023-01-13T22:29:09.968Z,44.10
2023-01-13T22:31:40.655Z,46.15
2023-01-13T22:34:13.615Z,42.28
2023-01-13T22:36:44.459Z,45.33
2023-01-13T22:39:14.753Z,42.00
2023-01-13T22:41:53.745Z,53.28
2023-01-13T22:44:25.120Z,36.42
2023-01-13T22:46:55.749Z,39.72
2023-01-13T22:49:26.606Z,35.83
2023-01-13T22:51:57.197Z,34.97
2023-01-13T22:54:27.629Z,44.67
2023-01-13T22:56:58.045Z,41.78
2023-01-13T22:59:29.107Z,44.72
2023-01-13T23:02:00.529Z,41.42
2023-01-13T23:04:34.086Z,38.80
2023-01-13T23:07:04.762Z,45.47
2023-01-13T23:09:39.281Z,36.20
2023-01-13T23:12:09.995Z,46.03
2023-01-13T23:14:40.600Z,43.03
2023-01-13T23:17:13.941Z,42.58
2023-01-13T23:19:44.907Z,41.40
2023-01-13T23:22:15.579Z,44.15
2023-01-13T23:24:46.445Z,39.92
2023-01-13T23:27:17.003Z,39.45
2023-01-13T23:29:47.582Z,41.42
2023-01-13T23:32:18.121Z,39.90
2023-01-13T23:34:48.721Z,45.13
2023-01-13T23:37:19.627Z,46.50
2023-01-13T23:39:53.744Z,43.50
2023-01-13T23:42:27.541Z,43.65
2023-01-13T23:44:57.999Z,43.03
2023-01-13T23:47:30.208Z,49.67
2023-01-13T23:50:00.638Z,44.53
2023-01-13T23:52:31.282Z,46.55
2023-01-13T23:55:02.076Z,48.40
2023-01-13T23:57:33.149Z,45.60
